createdAt,value
2022-10-31T00:02:12.167Z,9.52
2022-10-31T00:07:13.912Z,9.82
2022-10-31T00:12:15.527Z,9.41
2022-10-31T00:17:17.633Z,9.62
2022-10-31T00:22:19.209Z,9.34
2022-10-31T00:27:21.148Z,9.66
2022-10-31T00:32:23.013Z,9.59
2022-10-31T00:37:24.842Z,9.59
2022-10-31T00:42:26.653Z,9.08
2022-10-31T00:47:28.227Z,9.49
2022-10-31T00:52:29.821Z,9.07
2022-10-31T00:57:32.347Z,9.31
2022-10-31T01:02:34.065Z,8.97
2022-10-31T01:07:40.572Z,9.07
2022-10-31T01:12:46.480Z,9.01
2022-10-31T01:17:49.563Z,9.07
2022-10-31T01:22:51.136Z,8.95
2022-10-31T01:27:52.677Z,9.12
2022-10-31T01:32:54.189Z,8.86
2022-10-31T01:37:55.715Z,9.10
2022-10-31T01:42:57.662Z,8.87
2022-10-31T01:47:59.896Z,8.70
2022-10-31T01:53:03.254Z,8.72
2022-10-31T01:58:13.009Z,8.46
2022-10-31T02:03:15.165Z,8.62
2022-10-31T02:08:24.584Z,8.89
2022-10-31T02:13:28.642Z,8.65
2022-10-31T02:18:31.561Z,8.80
2022-10-31T02:23:54.876Z,8.57
2022-10-31T02:29:18.351Z,8.81
2022-10-31T02:34:24.847Z,8.51
2022-10-31T02:39:48.898Z,8.30
2022-10-31T02:45:08.841Z,8.70
2022-10-31T02:50:17.133Z,8.34
2022-10-31T02:55:27.889Z,8.18
2022-10-31T03:00:44.811Z,8.62
2022-10-31T03:06:04.468Z,8.64
2022-10-31T03:11:10.676Z,8.65
2022-10-31T03:16:18.745Z,8.22
2022-10-31T03:21:31.439Z,8.04
2022-10-31T03:26:39.142Z,8.34
2022-10-31T03:31:48.042Z,8.41
2022-10-31T03:36:55.978Z,8.22
2022-10-31T03:42:03.381Z,8.26
2022-10-31T03:47:05.760Z,7.94
2022-10-31T03:52:25.931Z,7.94
2022-10-31T03:57:32.690Z,8.16
2022-10-31T04:02:42.479Z,8.11
2022-10-31T04:07:47.239Z,7.89
2022-10-31T04:12:54.179Z,8.04
2022-10-31T04:18:01.228Z,8.16
2022-10-31T04:23:04.879Z,7.82
2022-10-31T04:28:06.902Z,7.86
2022-10-31T04:33:09.135Z,7.65
2022-10-31T04:38:10.986Z,7.89
2022-10-31T04:43:14.139Z,8.00
2022-10-31T04:48:18.283Z,7.79
2022-10-31T04:53:20.356Z,7.71
2022-10-31T04:58:53.938Z,7.70
2022-10-31T05:03:57.433Z,7.78
2022-10-31T05:08:59.675Z,7.85
2022-10-31T05:14:01.345Z,7.83
2022-10-31T05:19:25.769Z,7.89
2022-10-31T05:24:56.003Z,7.48
2022-10-31T05:29:58.027Z,7.69
2022-10-31T05:34:59.706Z,7.74
2022-10-31T05:40:24.316Z,7.39
2022-10-31T05:45:26.032Z,7.38
2022-10-31T05:50:32.863Z,7.49
2022-10-31T05:55:52.180Z,7.41
2022-10-31T06:00:56.157Z,7.42
2022-10-31T06:05:58.211Z,7.48
2022-10-31T06:11:05.245Z,7.45
2022-10-31T06:16:25.787Z,7.46
2022-10-31T06:21:30.857Z,7.48
2022-10-31T06:26:32.497Z,7.37
2022-10-31T06:31:34.264Z,7.57
2022-10-31T06:36:36.135Z,7.56
2022-10-31T06:41:40.606Z,7.53
2022-10-31T06:46:42.738Z,7.76
2022-10-31T06:52:02.848Z,7.66
2022-10-31T06:57:04.638Z,8.02
2022-10-31T07:02:10.690Z,8.03
2022-10-31T07:07:13.837Z,8.00
2022-10-31T07:12:17.743Z,8.20
2022-10-31T07:17:30.012Z,8.23
2022-10-31T07:22:38.415Z,8.39
2022-10-31T07:27:44.014Z,8.46
2022-10-31T07:32:51.746Z,8.56
2022-10-31T07:37:55.734Z,8.82
2022-10-31T07:42:58.900Z,8.86
2022-10-31T07:48:26.771Z,8.94
2022-10-31T07:53:47.099Z,9.09
2022-10-31T07:58:57.899Z,9.42
2022-10-31T08:03:59.539Z,9.48
2022-10-31T08:09:19.420Z,9.57
2022-10-31T08:14:21.174Z,9.71
2022-10-31T08:19:22.758Z,9.96
2022-10-31T08:24:25.649Z,10.00
2022-10-31T08:29:29.183Z,10.28
2022-10-31T08:34:31.748Z,10.48
2022-10-31T08:40:09.356Z,10.57
2022-10-31T08:45:10.937Z,10.70
2022-10-31T08:50:12.513Z,10.93
2022-10-31T08:55:14.366Z,11.13
2022-10-31T09:00:35.782Z,11.85
2022-10-31T09:05:46.893Z,11.71
2022-10-31T09:10:48.859Z,11.82
2022-10-31T09:15:58.398Z,11.85
2022-10-31T09:21:01.118Z,12.01
2022-10-31T09:26:09.887Z,12.58
2022-10-31T09:31:42.215Z,12.93
2022-10-31T09:37:00.415Z,12.86
2022-10-31T09:42:46.112Z,13.33
2022-10-31T09:48:07.229Z,13.70
2022-10-31T09:53:22.346Z,13.59
2022-10-31T09:58:27.600Z,13.95
2022-10-31T10:03:35.508Z,13.92
2022-10-31T10:08:46.303Z,14.21
2022-10-31T10:14:27.712Z,14.35
2022-10-31T10:20:14.920Z,15.70
2022-10-31T10:25:34.597Z,16.61
2022-10-31T10:30:47.396Z,16.89
2022-10-31T10:35:53.336Z,17.40
2022-10-31T10:40:55.605Z,17.12
2022-10-31T10:46:39.270Z,18.06
2022-10-31T10:57:28.080Z,18.81
2022-10-31T11:02:33.846Z,19.16
2022-10-31T11:07:41.634Z,19.90
2022-10-31T11:12:57.746Z,20.89
2022-10-31T11:17:59.999Z,20.85
2022-10-31T11:23:19.418Z,20.81
2022-10-31T11:28:21.466Z,20.85
2022-10-31T11:33:32.410Z,21.14
2022-10-31T11:38:42.476Z,20.64
2022-10-31T11:44:19.643Z,20.71
2022-10-31T11:49:37.747Z,20.07
2022-10-31T11:54:50.699Z,19.55
2022-10-31T11:59:54.711Z,19.44
2022-10-31T12:05:07.634Z,19.51
2022-10-31T12:10:14.635Z,19.11
2022-10-31T12:15:32.213Z,18.69
2022-10-31T12:20:59.471Z,18.77
2022-10-31T12:26:36.506Z,18.48
2022-10-31T12:31:52.998Z,18.23
2022-10-31T12:36:57.185Z,18.51
2022-10-31T12:42:19.615Z,18.06
2022-10-31T12:47:58.637Z,17.93
2022-10-31T12:53:29.228Z,17.90
2022-10-31T12:58:36.586Z,17.86
2022-10-31T13:03:57.982Z,18.09
2022-10-31T13:09:03.959Z,17.89
2022-10-31T13:14:17.851Z,18.08
2022-10-31T13:19:27.344Z,17.93
2022-10-31T13:24:37.861Z,18.10
2022-10-31T13:29:55.064Z,18.02
2022-10-31T13:34:59.989Z,17.89
2022-10-31T13:40:10.653Z,17.96
2022-10-31T13:45:18.586Z,17.94
2022-10-31T13:50:24.088Z,18.17
2022-10-31T13:55:42.920Z,17.76
2022-10-31T14:00:45.151Z,17.96
2022-10-31T14:05:54.599Z,17.87
2022-10-31T14:10:57.160Z,17.91
2022-10-31T14:16:17.528Z,17.79
2022-10-31T14:21:24.921Z,17.90
2022-10-31T14:26:29.626Z,17.61
2022-10-31T14:31:47.358Z,17.32
2022-10-31T14:37:10.709Z,17.04
2022-10-31T14:42:38.919Z,17.26
2022-10-31T14:47:47.557Z,16.85
2022-10-31T14:52:53.364Z,16.82
2022-10-31T14:58:00.511Z,16.54
2022-10-31T15:03:08.948Z,16.46
2022-10-31T15:08:15.299Z,16.15
2022-10-31T15:13:22.535Z,15.79
2022-10-31T15:18:27.832Z,15.76
2022-10-31T15:23:30.963Z,15.56
2022-10-31T15:28:33.027Z,15.17
2022-10-31T15:33:48.185Z,15.07
2022-10-31T15:38:50.952Z,14.96
2022-10-31T15:43:52.728Z,14.81
2022-10-31T15:48:55.224Z,14.56
2022-10-31T15:53:58.224Z,14.54
2022-10-31T15:59:01.858Z,14.27
2022-10-31T16:04:23.626Z,13.87
2022-10-31T16:09:25.499Z,13.84
2022-10-31T16:14:30.271Z,13.52
2022-10-31T16:19:38.818Z,13.29
2022-10-31T16:24:54.782Z,13.24
2022-10-31T16:29:58.528Z,13.18
2022-10-31T16:35:09.500Z,13.13
2022-10-31T16:40:14.756Z,13.03
2022-10-31T16:45:28.043Z,13.51
2022-10-31T16:50:29.966Z,13.22
2022-10-31T16:55:32.674Z,12.99
2022-10-31T17:00:34.330Z,13.02
2022-10-31T17:05:36.805Z,13.08
2022-10-31T17:10:39.732Z,13.09
2022-10-31T17:15:48.459Z,12.95
2022-10-31T17:20:50.821Z,12.67
2022-10-31T17:25:52.370Z,12.65
2022-10-31T17:30:55.730Z,12.87
2022-10-31T17:35:57.290Z,12.65
2022-10-31T17:40:58.892Z,12.38
2022-10-31T17:46:01.341Z,12.62
2022-10-31T17:51:07.177Z,12.53
2022-10-31T17:56:10.005Z,12.49
2022-10-31T18:01:14.778Z,12.56
2022-10-31T18:06:17.032Z,12.31
2022-10-31T18:11:20.983Z,12.29
2022-10-31T18:16:23.596Z,12.63
2022-10-31T18:21:25.683Z,12.45
2022-10-31T18:26:28.248Z,12.20
2022-10-31T18:31:29.969Z,12.05
2022-10-31T18:36:31.894Z,11.98
2022-10-31T18:41:33.762Z,11.88
2022-10-31T18:46:36.259Z,11.90
2022-10-31T18:51:37.959Z,11.91
2022-10-31T18:56:39.639Z,11.71
2022-10-31T19:01:41.361Z,11.66
2022-10-31T19:06:43.093Z,11.62
2022-10-31T19:11:44.682Z,11.65
2022-10-31T19:16:46.341Z,11.51
2022-10-31T19:21:47.991Z,11.62
2022-10-31T19:26:49.910Z,11.76
2022-10-31T19:31:51.518Z,11.42
2022-10-31T19:36:53.587Z,11.44
2022-10-31T19:41:55.134Z,11.22
2022-10-31T19:46:56.883Z,11.06
2022-10-31T19:51:58.595Z,11.07
2022-10-31T19:57:01.064Z,11.25
2022-10-31T20:02:02.682Z,11.20
2022-10-31T20:07:04.345Z,11.35
2022-10-31T20:12:06.376Z,11.13
2022-10-31T20:17:09.039Z,10.98
2022-10-31T20:22:11.092Z,11.21
2022-10-31T20:27:12.622Z,11.16
2022-10-31T20:32:14.216Z,11.14
2022-10-31T20:37:15.813Z,11.19
2022-10-31T20:42:17.392Z,11.17
2022-10-31T20:47:21.978Z,11.53
2022-10-31T20:52:26.489Z,11.77
2022-10-31T20:57:27.969Z,11.90
2022-10-31T21:02:29.670Z,12.33
2022-10-31T21:07:31.366Z,12.44
2022-10-31T21:12:33.796Z,12.36
2022-10-31T21:17:35.364Z,11.99
2022-10-31T21:22:37.415Z,12.07
2022-10-31T21:27:38.909Z,12.09
2022-10-31T21:32:40.481Z,12.09
2022-10-31T21:37:42.065Z,11.80
2022-10-31T21:42:43.631Z,11.60
2022-10-31T21:47:45.230Z,11.54
2022-10-31T21:52:46.792Z,11.45
2022-10-31T21:57:48.310Z,11.35
2022-10-31T22:02:49.904Z,11.31
2022-10-31T22:07:51.437Z,11.29
2022-10-31T22:12:53.075Z,11.18
2022-10-31T22:17:54.627Z,11.14
2022-10-31T22:22:56.208Z,11.11
2022-10-31T22:27:57.815Z,11.24
2022-10-31T22:32:59.925Z,11.18
2022-10-31T22:38:01.842Z,11.22
2022-10-31T22:43:03.814Z,11.23
2022-10-31T22:48:06.051Z,11.61
2022-10-31T22:53:07.740Z,11.48
2022-10-31T22:58:10.086Z,11.36
2022-10-31T23:03:14.118Z,11.23
2022-10-31T23:08:19.024Z,11.24
2022-10-31T23:13:39.476Z,11.35
2022-10-31T23:18:55.997Z,11.77
2022-10-31T23:23:57.933Z,11.64
2022-10-31T23:28:59.484Z,11.72
2022-10-31T23:34:01.103Z,11.41
2022-10-31T23:39:02.730Z,11.17
2022-10-31T23:44:04.513Z,10.92
2022-10-31T23:49:06.041Z,10.67
2022-10-31T23:54:07.785Z,10.60
2022-10-31T23:59:09.548Z,10.79
